sensor_id;sensor_type;location;lat;lon;timestamp;temperature;humidity
16867;DHT22;8550;52.596;13.320;2022-10-16T00:00:41;15.80;99.90
16867;DHT22;8550;52.596;13.320;2022-10-16T00:05:44;15.90;99.90
16867;DHT22;8550;52.596;13.320;2022-10-16T00:10:47;16.00;99.90
16867;DHT22;8550;52.596;13.320;2022-10-16T00:15:48;16.10;99.90
16867;DHT22;8550;52.596;13.320;2022-10-16T00:20:51;16.10;99.90
16867;DHT22;8550;52.596;13.320;2022-10-16T00:25:57;16.10;99.90
16867;DHT22;8550;52.596;13.320;2022-10-16T00:31:03;16.10;99.90
16867;DHT22;8550;52.596;13.320;2022-10-16T00:36:06;16.10;99.90
16867;DHT22;8550;52.596;13.320;2022-10-16T00:41:12;16.00;99.90
16867;DHT22;8550;52.596;13.320;2022-10-16T00:46:17;16.00;99.90
16867;DHT22;8550;52.596;13.320;2022-10-16T00:51:25;16.00;99.90
16867;DHT22;8550;52.596;13.320;2022-10-16T00:56:31;16.00;99.90
16867;DHT22;8550;52.596;13.320;2022-10-16T01:01:33;15.90;99.90
16867;DHT22;8550;52.596;13.320;2022-10-16T01:06:39;15.90;99.90
16867;DHT22;8550;52.596;13.320;2022-10-16T01:11:52;15.90;99.90
16867;DHT22;8550;52.596;13.320;2022-10-16T01:17:00;16.00;99.90
16867;DHT22;8550;52.596;13.320;2022-10-16T01:22:04;16.00;99.90
16867;DHT22;8550;52.596;13.320;2022-10-16T01:27:11;16.10;99.90
16867;DHT22;8550;52.596;13.320;2022-10-16T01:32:17;16.10;99.90
16867;DHT22;8550;52.596;13.320;2022-10-16T01:37:26;16.10;99.90
16867;DHT22;8550;52.596;13.320;2022-10-16T01:42:34;16.20;99.90
16867;DHT22;8550;52.596;13.320;2022-10-16T01:47:39;16.20;99.90
16867;DHT22;8550;52.596;13.320;2022-10-16T01:52:45;16.20;99.90
16867;DHT22;8550;52.596;13.320;2022-10-16T01:57:50;16.30;99.90
16867;DHT22;8550;52.596;13.320;2022-10-16T02:02:53;16.20;99.90
16867;DHT22;8550;52.596;13.320;2022-10-16T02:07:56;16.20;99.90
16867;DHT22;8550;52.596;13.320;2022-10-16T02:13:03;16.20;99.90
16867;DHT22;8550;52.596;13.320;2022-10-16T02:18:07;16.20;99.90
16867;DHT22;8550;52.596;13.320;2022-10-16T02:23:12;16.30;99.90
16867;DHT22;8550;52.596;13.320;2022-10-16T02:28:19;16.30;99.90
16867;DHT22;8550;52.596;13.320;2022-10-16T02:33:25;16.40;99.90
16867;DHT22;8550;52.596;13.320;2022-10-16T02:38:27;16.40;99.90
16867;DHT22;8550;52.596;13.320;2022-10-16T02:43:32;16.30;99.90
16867;DHT22;8550;52.596;13.320;2022-10-16T02:48:34;16.30;99.90
16867;DHT22;8550;52.596;13.320;2022-10-16T02:53:36;16.30;99.90
16867;DHT22;8550;52.596;13.320;2022-10-16T02:58:39;16.20;99.90
16867;DHT22;8550;52.596;13.320;2022-10-16T03:03:41;16.20;99.90
16867;DHT22;8550;52.596;13.320;2022-10-16T03:08:43;16.10;99.90
16867;DHT22;8550;52.596;13.320;2022-10-16T03:13:46;16.00;99.90
16867;DHT22;8550;52.596;13.320;2022-10-16T03:18:48;16.00;99.90
16867;DHT22;8550;52.596;13.320;2022-10-16T03:23:50;15.90;99.90
16867;DHT22;8550;52.596;13.320;2022-10-16T03:28:53;15.80;99.90
16867;DHT22;8550;52.596;13.320;2022-10-16T03:33:55;15.70;99.90
16867;DHT22;8550;52.596;13.320;2022-10-16T03:38:57;15.60;99.90
16867;DHT22;8550;52.596;13.320;2022-10-16T03:44:00;15.60;99.90
16867;DHT22;8550;52.596;13.320;2022-10-16T03:49:01;15.60;99.90
16867;DHT22;8550;52.596;13.320;2022-10-16T03:54:03;15.60;99.90
16867;DHT22;8550;52.596;13.320;2022-10-16T03:59:06;15.60;99.90
16867;DHT22;8550;52.596;13.320;2022-10-16T04:04:08;15.60;99.90
16867;DHT22;8550;52.596;13.320;2022-10-16T04:09:10;15.60;99.90
16867;DHT22;8550;52.596;13.320;2022-10-16T04:14:13;15.60;99.90
16867;DHT22;8550;52.596;13.320;2022-10-16T04:19:15;15.60;99.90
16867;DHT22;8550;52.596;13.320;2022-10-16T04:24:17;15.50;99.90
16867;DHT22;8550;52.596;13.320;2022-10-16T04:29:20;15.40;99.90
16867;DHT22;8550;52.596;13.320;2022-10-16T04:34:22;15.30;99.90
16867;DHT22;8550;52.596;13.320;2022-10-16T04:39:23;15.30;99.90
16867;DHT22;8550;52.596;13.320;2022-10-16T04:44:27;15.30;99.90
16867;DHT22;8550;52.596;13.320;2022-10-16T04:49:28;15.20;99.90
16867;DHT22;8550;52.596;13.320;2022-10-16T04:54:30;15.00;99.90
16867;DHT22;8550;52.596;13.320;2022-10-16T04:59:33;15.00;99.90
16867;DHT22;8550;52.596;13.320;2022-10-16T05:04:35;15.00;99.90
16867;DHT22;8550;52.596;13.320;2022-10-16T05:09:37;15.00;99.90
16867;DHT22;8550;52.596;13.320;2022-10-16T05:14:40;14.90;99.90
16867;DHT22;8550;52.596;13.320;2022-10-16T05:19:42;14.90;99.90
16867;DHT22;8550;52.596;13.320;2022-10-16T05:24:43;14.90;99.90
16867;DHT22;8550;52.596;13.320;2022-10-16T05:29:47;14.80;99.90
16867;DHT22;8550;52.596;13.320;2022-10-16T05:34:50;14.90;99.90
16867;DHT22;8550;52.596;13.320;2022-10-16T05:39:52;14.80;99.90
16867;DHT22;8550;52.596;13.320;2022-10-16T05:44:56;14.90;99.90
16867;DHT22;8550;52.596;13.320;2022-10-16T05:49:57;14.90;99.90
16867;DHT22;8550;52.596;13.320;2022-10-16T05:54:59;15.00;99.90
16867;DHT22;8550;52.596;13.320;2022-10-16T06:00:03;15.10;99.90
16867;DHT22;8550;52.596;13.320;2022-10-16T06:05:05;15.20;99.90
16867;DHT22;8550;52.596;13.320;2022-10-16T06:10:08;15.30;99.90
16867;DHT22;8550;52.596;13.320;2022-10-16T06:15:11;15.40;99.90
16867;DHT22;8550;52.596;13.320;2022-10-16T06:20:13;15.50;99.90
16867;DHT22;8550;52.596;13.320;2022-10-16T06:25:15;15.50;99.90
16867;DHT22;8550;52.596;13.320;2022-10-16T06:30:18;15.70;99.90
16867;DHT22;8550;52.596;13.320;2022-10-16T06:35:20;15.80;99.90
16867;DHT22;8550;52.596;13.320;2022-10-16T06:40:22;15.90;99.90
16867;DHT22;8550;52.596;13.320;2022-10-16T06:45:25;15.90;99.90
16867;DHT22;8550;52.596;13.320;2022-10-16T06:50:27;16.00;99.90
16867;DHT22;8550;52.596;13.320;2022-10-16T06:55:28;16.20;99.90
16867;DHT22;8550;52.596;13.320;2022-10-16T07:00:31;16.30;99.90
16867;DHT22;8550;52.596;13.320;2022-10-16T07:05:37;16.60;99.90
16867;DHT22;8550;52.596;13.320;2022-10-16T07:10:39;16.70;99.90
16867;DHT22;8550;52.596;13.320;2022-10-16T07:15:42;16.80;99.90
16867;DHT22;8550;52.596;13.320;2022-10-16T07:20:43;16.70;99.90
16867;DHT22;8550;52.596;13.320;2022-10-16T07:25:53;16.80;99.90
16867;DHT22;8550;52.596;13.320;2022-10-16T07:31:00;16.80;99.90
16867;DHT22;8550;52.596;13.320;2022-10-16T07:36:02;16.90;99.90
16867;DHT22;8550;52.596;13.320;2022-10-16T07:41:05;17.10;99.90
16867;DHT22;8550;52.596;13.320;2022-10-16T07:46:09;17.20;99.90
16867;DHT22;8550;52.596;13.320;2022-10-16T07:51:11;17.40;99.90
16867;DHT22;8550;52.596;13.320;2022-10-16T07:56:13;17.30;99.90
16867;DHT22;8550;52.596;13.320;2022-10-16T08:01:17;17.30;99.90
16867;DHT22;8550;52.596;13.320;2022-10-16T08:06:20;17.10;99.90
16867;DHT22;8550;52.596;13.320;2022-10-16T08:11:22;17.20;99.90
16867;DHT22;8550;52.596;13.320;2022-10-16T08:16:26;17.30;99.90
16867;DHT22;8550;52.596;13.320;2022-10-16T08:21:27;17.40;99.90
16867;DHT22;8550;52.596;13.320;2022-10-16T08:26:29;17.40;99.90
16867;DHT22;8550;52.596;13.320;2022-10-16T08:31:32;17.50;99.90
16867;DHT22;8550;52.596;13.320;2022-10-16T08:36:34;17.60;99.90
16867;DHT22;8550;52.596;13.320;2022-10-16T08:42:01;17.80;99.90
16867;DHT22;8550;52.596;13.320;2022-10-16T08:47:13;18.00;99.90
16867;DHT22;8550;52.596;13.320;2022-10-16T08:52:19;18.10;99.90
16867;DHT22;8550;52.596;13.320;2022-10-16T08:57:22;18.20;99.90
16867;DHT22;8550;52.596;13.320;2022-10-16T09:02:31;18.30;99.90
16867;DHT22;8550;52.596;13.320;2022-10-16T09:07:38;18.60;99.90
16867;DHT22;8550;52.596;13.320;2022-10-16T09:12:51;18.80;99.90
16867;DHT22;8550;52.596;13.320;2022-10-16T09:18:01;18.80;99.90
16867;DHT22;8550;52.596;13.320;2022-10-16T09:23:15;18.80;99.90
16867;DHT22;8550;52.596;13.320;2022-10-16T09:28:18;18.80;99.90
16867;DHT22;8550;52.596;13.320;2022-10-16T09:33:24;18.60;99.90
16867;DHT22;8550;52.596;13.320;2022-10-16T09:38:28;18.60;99.90
16867;DHT22;8550;52.596;13.320;2022-10-16T09:43:34;18.80;99.90
16867;DHT22;8550;52.596;13.320;2022-10-16T09:48:43;18.80;99.90
16867;DHT22;8550;52.596;13.320;2022-10-16T09:53:46;18.70;99.90
16867;DHT22;8550;52.596;13.320;2022-10-16T09:58:50;18.80;99.90
16867;DHT22;8550;52.596;13.320;2022-10-16T10:03:56;19.10;99.90
16867;DHT22;8550;52.596;13.320;2022-10-16T10:09:06;19.30;99.90
16867;DHT22;8550;52.596;13.320;2022-10-16T10:14:24;19.50;99.90
16867;DHT22;8550;52.596;13.320;2022-10-16T10:19:28;19.40;99.90
16867;DHT22;8550;52.596;13.320;2022-10-16T10:24:30;19.20;99.90
16867;DHT22;8550;52.596;13.320;2022-10-16T10:29:42;19.10;99.90
16867;DHT22;8550;52.596;13.320;2022-10-16T10:35:13;19.20;99.90
16867;DHT22;8550;52.596;13.320;2022-10-16T10:40:28;19.40;99.90
16867;DHT22;8550;52.596;13.320;2022-10-16T10:45:38;19.70;99.90
16867;DHT22;8550;52.596;13.320;2022-10-16T10:50:48;20.30;99.90
16867;DHT22;8550;52.596;13.320;2022-10-16T10:55:57;22.00;99.90
16867;DHT22;8550;52.596;13.320;2022-10-16T11:01:07;22.10;99.90
16867;DHT22;8550;52.596;13.320;2022-10-16T11:06:14;21.60;99.90
16867;DHT22;8550;52.596;13.320;2022-10-16T11:11:23;21.30;99.90
16867;DHT22;8550;52.596;13.320;2022-10-16T11:16:28;20.80;99.90
16867;DHT22;8550;52.596;13.320;2022-10-16T11:21:37;20.60;99.90
16867;DHT22;8550;52.596;13.320;2022-10-16T11:26:42;20.40;99.90
16867;DHT22;8550;52.596;13.320;2022-10-16T11:31:47;20.20;99.90
16867;DHT22;8550;52.596;13.320;2022-10-16T11:36:56;20.00;99.90
16867;DHT22;8550;52.596;13.320;2022-10-16T11:42:04;21.70;99.90
16867;DHT22;8550;52.596;13.320;2022-10-16T11:47:19;24.20;99.60
16867;DHT22;8550;52.596;13.320;2022-10-16T11:52:30;25.00;95.20
16867;DHT22;8550;52.596;13.320;2022-10-16T11:57:40;24.10;94.70
16867;DHT22;8550;52.596;13.320;2022-10-16T12:02:54;22.30;99.10
16867;DHT22;8550;52.596;13.320;2022-10-16T12:08:06;21.30;99.90
16867;DHT22;8550;52.596;13.320;2022-10-16T12:13:32;21.10;99.90
16867;DHT22;8550;52.596;13.320;2022-10-16T12:18:34;20.80;99.90
16867;DHT22;8550;52.596;13.320;2022-10-16T12:23:45;20.50;99.90
16867;DHT22;8550;52.596;13.320;2022-10-16T12:28:49;20.60;99.90
16867;DHT22;8550;52.596;13.320;2022-10-16T12:33:58;20.60;99.90
16867;DHT22;8550;52.596;13.320;2022-10-16T12:39:03;20.50;99.90
16867;DHT22;8550;52.596;13.320;2022-10-16T12:44:20;20.40;99.90
16867;DHT22;8550;52.596;13.320;2022-10-16T12:49:30;20.40;99.90
16867;DHT22;8550;52.596;13.320;2022-10-16T12:54:37;20.30;99.90
16867;DHT22;8550;52.596;13.320;2022-10-16T12:59:44;20.40;99.90
16867;DHT22;8550;52.596;13.320;2022-10-16T13:05:01;20.60;99.90
16867;DHT22;8550;52.596;13.320;2022-10-16T13:10:15;20.80;99.20
16867;DHT22;8550;52.596;13.320;2022-10-16T13:15:36;21.30;98.50
16867;DHT22;8550;52.596;13.320;2022-10-16T13:20:55;21.80;97.60
16867;DHT22;8550;52.596;13.320;2022-10-16T13:26:08;22.30;96.50
16867;DHT22;8550;52.596;13.320;2022-10-16T13:31:18;23.40;93.30
16867;DHT22;8550;52.596;13.320;2022-10-16T13:36:22;22.50;94.80
16867;DHT22;8550;52.596;13.320;2022-10-16T13:41:28;22.10;95.10
16867;DHT22;8550;52.596;13.320;2022-10-16T13:46:30;22.00;95.30
16867;DHT22;8550;52.596;13.320;2022-10-16T13:51:34;21.90;94.70
16867;DHT22;8550;52.596;13.320;2022-10-16T13:56:39;21.70;93.80
16867;DHT22;8550;52.596;13.320;2022-10-16T14:01:43;22.10;93.80
16867;DHT22;8550;52.596;13.320;2022-10-16T14:06:48;22.80;91.30
16867;DHT22;8550;52.596;13.320;2022-10-16T14:11:54;23.50;90.40
16867;DHT22;8550;52.596;13.320;2022-10-16T14:16:56;24.80;84.10
16867;DHT22;8550;52.596;13.320;2022-10-16T14:21:59;25.80;78.90
16867;DHT22;8550;52.596;13.320;2022-10-16T14:27:23;26.50;75.90
16867;DHT22;8550;52.596;13.320;2022-10-16T14:32:28;26.20;74.20
16867;DHT22;8550;52.596;13.320;2022-10-16T14:37:30;27.20;72.00
16867;DHT22;8550;52.596;13.320;2022-10-16T14:42:34;27.50;69.00
16867;DHT22;8550;52.596;13.320;2022-10-16T14:47:37;27.30;68.80
16867;DHT22;8550;52.596;13.320;2022-10-16T14:52:48;26.50;69.60
16867;DHT22;8550;52.596;13.320;2022-10-16T14:57:52;26.80;67.90
16867;DHT22;8550;52.596;13.320;2022-10-16T15:02:53;25.80;69.10
16867;DHT22;8550;52.596;13.320;2022-10-16T15:07:56;25.30;73.30
16867;DHT22;8550;52.596;13.320;2022-10-16T15:12:59;25.70;71.60
16867;DHT22;8550;52.596;13.320;2022-10-16T15:18:01;25.30;71.30
16867;DHT22;8550;52.596;13.320;2022-10-16T15:23:05;24.80;72.00
16867;DHT22;8550;52.596;13.320;2022-10-16T15:28:10;23.40;77.80
16867;DHT22;8550;52.596;13.320;2022-10-16T15:33:13;22.20;84.50
16867;DHT22;8550;52.596;13.320;2022-10-16T15:38:17;21.00;91.00
16867;DHT22;8550;52.596;13.320;2022-10-16T15:43:20;20.20;93.90
16867;DHT22;8550;52.596;13.320;2022-10-16T15:48:22;19.80;95.80
16867;DHT22;8550;52.596;13.320;2022-10-16T15:53:24;19.50;97.40
16867;DHT22;8550;52.596;13.320;2022-10-16T15:58:29;19.20;98.80
16867;DHT22;8550;52.596;13.320;2022-10-16T16:03:31;19.00;99.70
16867;DHT22;8550;52.596;13.320;2022-10-16T16:08:34;18.80;99.90
16867;DHT22;8550;52.596;13.320;2022-10-16T16:13:37;18.70;99.90
16867;DHT22;8550;52.596;13.320;2022-10-16T16:18:40;18.20;99.90
16867;DHT22;8550;52.596;13.320;2022-10-16T16:23:41;18.00;99.90
16867;DHT22;8550;52.596;13.320;2022-10-16T16:28:45;17.60;99.90
16867;DHT22;8550;52.596;13.320;2022-10-16T16:33:46;17.20;99.90
16867;DHT22;8550;52.596;13.320;2022-10-16T16:38:48;16.80;99.90
16867;DHT22;8550;52.596;13.320;2022-10-16T16:43:51;16.60;99.90
16867;DHT22;8550;52.596;13.320;2022-10-16T16:48:53;16.30;99.90
16867;DHT22;8550;52.596;13.320;2022-10-16T16:53:56;16.00;99.90
16867;DHT22;8550;52.596;13.320;2022-10-16T16:58:59;15.80;99.90
16867;DHT22;8550;52.596;13.320;2022-10-16T17:04:01;15.50;99.90
16867;DHT22;8550;52.596;13.320;2022-10-16T17:09:04;15.30;99.90
16867;DHT22;8550;52.596;13.320;2022-10-16T17:14:09;15.10;99.90
16867;DHT22;8550;52.596;13.320;2022-10-16T17:19:13;15.00;99.90
16867;DHT22;8550;52.596;13.320;2022-10-16T17:24:15;14.70;99.90
16867;DHT22;8550;52.596;13.320;2022-10-16T17:29:19;14.60;99.90
16867;DHT22;8550;52.596;13.320;2022-10-16T17:34:21;14.50;99.90
16867;DHT22;8550;52.596;13.320;2022-10-16T17:39:22;14.30;99.90
16867;DHT22;8550;52.596;13.320;2022-10-16T17:44:26;14.20;99.90
16867;DHT22;8550;52.596;13.320;2022-10-16T17:49:28;14.10;99.90
16867;DHT22;8550;52.596;13.320;2022-10-16T17:54:29;14.00;99.90
16867;DHT22;8550;52.596;13.320;2022-10-16T17:59:33;13.80;99.90
16867;DHT22;8550;52.596;13.320;2022-10-16T18:04:34;13.60;99.90
16867;DHT22;8550;52.596;13.320;2022-10-16T18:09:36;13.40;99.90
16867;DHT22;8550;52.596;13.320;2022-10-16T18:14:39;13.40;99.90
16867;DHT22;8550;52.596;13.320;2022-10-16T18:19:41;13.40;99.90
16867;DHT22;8550;52.596;13.320;2022-10-16T18:24:43;13.40;99.90
16867;DHT22;8550;52.596;13.320;2022-10-16T18:29:46;13.40;99.90
16867;DHT22;8550;52.596;13.320;2022-10-16T18:34:48;13.10;99.90
16867;DHT22;8550;52.596;13.320;2022-10-16T18:39:50;13.00;99.90
16867;DHT22;8550;52.596;13.320;2022-10-16T18:44:53;13.00;99.90
16867;DHT22;8550;52.596;13.320;2022-10-16T18:49:55;13.00;99.90
16867;DHT22;8550;52.596;13.320;2022-10-16T18:54:57;12.80;99.90
16867;DHT22;8550;52.596;13.320;2022-10-16T19:00:00;12.70;99.90
16867;DHT22;8550;52.596;13.320;2022-10-16T19:05:01;12.80;99.90
16867;DHT22;8550;52.596;13.320;2022-10-16T19:10:04;12.70;99.90
16867;DHT22;8550;52.596;13.320;2022-10-16T19:15:08;12.60;99.90
16867;DHT22;8550;52.596;13.320;2022-10-16T19:20:10;12.70;99.90
16867;DHT22;8550;52.596;13.320;2022-10-16T19:25:12;12.70;99.90
16867;DHT22;8550;52.596;13.320;2022-10-16T19:30:15;12.80;99.90
16867;DHT22;8550;52.596;13.320;2022-10-16T19:35:17;12.60;99.90
16867;DHT22;8550;52.596;13.320;2022-10-16T19:40:19;12.50;99.90
16867;DHT22;8550;52.596;13.320;2022-10-16T19:45:22;12.70;99.90
16867;DHT22;8550;52.596;13.320;2022-10-16T19:50:24;12.70;99.90
16867;DHT22;8550;52.596;13.320;2022-10-16T19:55:25;12.80;99.90
16867;DHT22;8550;52.596;13.320;2022-10-16T20:00:28;12.80;99.90
16867;DHT22;8550;52.596;13.320;2022-10-16T20:05:30;12.80;99.90
16867;DHT22;8550;52.596;13.320;2022-10-16T20:10:32;12.80;99.90
16867;DHT22;8550;52.596;13.320;2022-10-16T20:15:37;12.80;99.90
16867;DHT22;8550;52.596;13.320;2022-10-16T20:20:40;12.60;99.90
16867;DHT22;8550;52.596;13.320;2022-10-16T20:25:43;12.50;99.90
16867;DHT22;8550;52.596;13.320;2022-10-16T20:30:48;12.60;99.90
16867;DHT22;8550;52.596;13.320;2022-10-16T20:35:50;12.60;99.90
16867;DHT22;8550;52.596;13.320;2022-10-16T20:40:52;12.50;99.90
16867;DHT22;8550;52.596;13.320;2022-10-16T20:46:00;12.50;99.90
16867;DHT22;8550;52.596;13.320;2022-10-16T20:51:10;12.50;99.90
16867;DHT22;8550;52.596;13.320;2022-10-16T20:56:12;12.40;99.90
16867;DHT22;8550;52.596;13.320;2022-10-16T21:01:18;12.50;99.90
16867;DHT22;8550;52.596;13.320;2022-10-16T21:06:20;12.60;99.90
16867;DHT22;8550;52.596;13.320;2022-10-16T21:11:23;12.50;99.90
16867;DHT22;8550;52.596;13.320;2022-10-16T21:16:29;12.50;99.90
16867;DHT22;8550;52.596;13.320;2022-10-16T21:21:33;12.60;99.90
16867;DHT22;8550;52.596;13.320;2022-10-16T21:26:35;12.60;99.90
16867;DHT22;8550;52.596;13.320;2022-10-16T21:31:39;12.60;99.90
16867;DHT22;8550;52.596;13.320;2022-10-16T21:36:42;12.60;99.90
16867;DHT22;8550;52.596;13.320;2022-10-16T21:41:45;12.70;99.90
16867;DHT22;8550;52.596;13.320;2022-10-16T21:46:49;12.70;99.90
16867;DHT22;8550;52.596;13.320;2022-10-16T21:51:51;12.70;99.90
16867;DHT22;8550;52.596;13.320;2022-10-16T21:56:54;12.70;99.90
16867;DHT22;8550;52.596;13.320;2022-10-16T22:01:57;12.70;99.90
16867;DHT22;8550;52.596;13.320;2022-10-16T22:07:02;12.60;99.90
16867;DHT22;8550;52.596;13.320;2022-10-16T22:12:03;12.60;99.90
16867;DHT22;8550;52.596;13.320;2022-10-16T22:17:07;12.50;99.90
16867;DHT22;8550;52.596;13.320;2022-10-16T22:22:08;12.40;99.90
16867;DHT22;8550;52.596;13.320;2022-10-16T22:27:10;12.40;99.90
16867;DHT22;8550;52.596;13.320;2022-10-16T22:32:14;12.30;99.90
16867;DHT22;8550;52.596;13.320;2022-10-16T22:37:16;12.30;99.90
16867;DHT22;8550;52.596;13.320;2022-10-16T22:42:18;12.20;99.90
16867;DHT22;8550;52.596;13.320;2022-10-16T22:47:23;12.10;99.90
16867;DHT22;8550;52.596;13.320;2022-10-16T22:52:25;12.10;99.90
16867;DHT22;8550;52.596;13.320;2022-10-16T22:57:27;12.10;99.90
16867;DHT22;8550;52.596;13.320;2022-10-16T23:02:31;12.20;99.90
16867;DHT22;8550;52.596;13.320;2022-10-16T23:07:33;12.20;99.90
16867;DHT22;8550;52.596;13.320;2022-10-16T23:12:37;12.20;99.90
16867;DHT22;8550;52.596;13.320;2022-10-16T23:17:40;12.30;99.90
16867;DHT22;8550;52.596;13.320;2022-10-16T23:22:42;12.40;99.90
16867;DHT22;8550;52.596;13.320;2022-10-16T23:27:47;12.50;99.90
16867;DHT22;8550;52.596;13.320;2022-10-16T23:32:50;12.60;99.90
16867;DHT22;8550;52.596;13.320;2022-10-16T23:37:52;12.70;99.90
16867;DHT22;8550;52.596;13.320;2022-10-16T23:42:53;12.70;99.90
16867;DHT22;8550;52.596;13.320;2022-10-16T23:47:57;12.70;99.90
16867;DHT22;8550;52.596;13.320;2022-10-16T23:52:59;12.70;99.90
16867;DHT22;8550;52.596;13.320;2022-10-16T23:58:00;12.80;99.90
